CDT,Max TemperatureF,Mean TemperatureF,Min TemperatureF,Max Dew PointF,MeanDew PointF,Min DewpointF,Max Humidity, Mean Humidity, Min Humidity, Max Sea Level PressureIn, Mean Sea Level PressureIn, Min Sea Level PressureIn, Max VisibilityMiles, Mean VisibilityMiles, Min VisibilityMiles, Max Wind SpeedMPH, Mean Wind SpeedMPH, Max Gust SpeedMPH,PrecipitationIn, CloudCover, Events, WindDirDegrees
2013-9-1,92,82,72,69,66,59,79,63,47,29.97,29.84,29.74,10,10,10,18,9,23,0.01,4,,358
2013-9-2,88,75,61,60,58,53,90,61,32,30.06,30.00,29.96,10,10,10,14,4,17,0.00,0,,21
2013-9-3,89,74,59,61,58,53,90,61,31,30.08,30.03,29.98,10,10,10,10,4,12,0.00,0,,118
2013-9-4,92,76,59,61,57,51,90,59,27,30.13,30.07,30.03,10,10,10,13,5,16,0.00,2,,147
2013-9-5,93,79,65,64,61,57,81,56,30,30.14,30.08,30.04,10,10,10,13,7,16,0.00,2,,133
2013-9-6,97,83,69,65,63,61,79,55,30,30.08,30.01,29.93,10,10,10,18,10,22,0.00,2,,155
2013-9-7,101,86,70,65,64,59,84,55,26,29.96,29.92,29.85,10,10,10,15,9,18,0.00,1,,174
2013-9-8,101,86,70,65,61,56,84,54,23,29.90,29.86,29.80,10,10,10,18,9,23,0.00,1,,189
2013-9-9,97,82,67,63,58,50,73,48,22,29.91,29.87,29.84,10,10,10,28,12,33,0.00,1,,185
2013-9-10,95,83,71,64,59,54,68,49,29,30.05,29.97,29.91,10,10,10,24,13,33,0.00,2,,181
2013-9-11,95,82,68,64,60,56,73,51,28,30.10,30.05,29.98,10,10,8,16,8,20,0.00,4,,181
2013-9-12,83,78,73,70,68,65,87,77,67,30.18,30.10,30.06,10,10,9,17,9,22,0.01,7,Rain,35
2013-9-13,81,74,67,62,50,47,68,51,33,30.14,30.08,30.00,10,10,10,17,11,22,0.00,7,,75
2013-9-14,87,75,62,61,55,49,68,56,43,30.03,29.96,29.88,10,10,10,18,11,23,0.00,5,,140
2013-9-15,93,80,66,68,63,59,81,57,33,30.10,29.96,29.88,10,10,2,51,12,63,0.25,5,Rain-Thunderstorm,158
2013-9-16,77,72,66,70,66,64,97,88,79,30.19,30.13,30.06,8,5,1,20,9,22,0.06,8,Rain,47
2013-9-17,85,76,67,68,67,65,100,78,55,30.15,30.04,29.89,10,7,2,21,11,28,0.06,6,Rain-Thunderstorm,147
2013-9-18,94,82,70,67,65,60,90,62,33,29.92,29.84,29.76,10,10,7,31,16,40,0.00,2,,184
2013-9-19,93,80,67,70,66,63,100,71,41,30.00,29.86,29.75,10,8,1,43,15,49,1.19,6,Rain-Thunderstorm,207
2013-9-20,77,67,56,67,53,47,93,65,36,30.09,30.02,29.95,10,10,10,21,9,25,0.00,5,,13
2013-9-21,81,66,51,56,53,50,96,66,36,30.03,29.97,29.89,10,10,6,12,4,15,0.00,0,,182
2013-9-22,80,67,53,56,51,47,93,63,32,29.94,29.87,29.79,10,10,10,18,11,24,0.00,0,,156
2013-9-23,82,69,55,54,51,49,83,60,36,29.82,29.76,29.70,10,10,7,28,16,35,0.00,3,,169
2013-9-24,81,70,58,55,53,50,84,62,39,29.90,29.86,29.78,10,10,7,25,13,29,0.00,2,,312
2013-9-25,84,68,51,58,55,50,96,65,34,29.92,29.83,29.73,10,10,8,18,7,24,0.00,0,,139
2013-9-26,93,79,64,59,57,54,78,53,28,29.78,29.74,29.70,10,10,10,30,17,36,0.00,1,,155
2013-9-27,89,77,65,63,59,57,73,56,39,29.86,29.80,29.74,10,10,10,28,17,35,0.00,3,,162
2013-9-28,78,65,51,67,55,42,100,67,33,30.12,29.92,29.72,10,9,5,26,13,35,0.45,6,Rain-Thunderstorm,317
2013-9-29,75,61,46,51,45,41,93,62,31,30.11,30.03,29.92,10,10,10,12,4,14,0.00,0,,169
2013-9-30,81,66,50,53,51,47,89,61,33,29.92,29.85,29.78,10,10,10,17,10,22,0.00,1,,165